sensor_id;sensor_type;location;lat;lon;timestamp;noise_LAeq;noise_LA_min;noise_LA_max;noise_LA01;noise_LA95
61095;Laerm;20450;49.074;9.158;2023-08-06T00:00:07;44.07;41.14;56.93;;
61095;Laerm;20450;49.074;9.158;2023-08-06T00:02:35;43.93;41.14;53.80;;
61095;Laerm;20450;49.074;9.158;2023-08-06T00:05:05;44.01;41.22;53.52;;
61095;Laerm;20450;49.074;9.158;2023-08-06T00:07:32;43.51;41.14;58.29;;
61095;Laerm;20450;49.074;9.158;2023-08-06T00:09:59;44.33;41.46;58.60;;
61095;Laerm;20450;49.074;9.158;2023-08-06T00:12:27;43.77;41.53;53.74;;
61095;Laerm;20450;49.074;9.158;2023-08-06T00:14:55;44.11;41.30;55.67;;
61095;Laerm;20450;49.074;9.158;2023-08-06T00:17:22;43.31;40.62;49.91;;
61095;Laerm;20450;49.074;9.158;2023-08-06T00:19:49;44.28;40.71;58.23;;
61095;Laerm;20450;49.074;9.158;2023-08-06T00:22:16;44.44;40.89;56.70;;
61095;Laerm;20450;49.074;9.158;2023-08-06T00:24:43;44.66;40.98;59.35;;
61095;Laerm;20450;49.074;9.158;2023-08-06T00:27:10;44.31;41.14;54.62;;
61095;Laerm;20450;49.074;9.158;2023-08-06T00:29:38;44.29;41.30;54.05;;
61095;Laerm;20450;49.074;9.158;2023-08-06T00:32:06;44.21;41.61;55.50;;
61095;Laerm;20450;49.074;9.158;2023-08-06T00:34:33;43.89;41.22;52.88;;
61095;Laerm;20450;49.074;9.158;2023-08-06T00:37:05;44.13;41.75;54.60;;
61095;Laerm;20450;49.074;9.158;2023-08-06T00:39:32;44.03;41.11;51.69;;
61095;Laerm;20450;49.074;9.158;2023-08-06T00:41:59;43.82;40.98;52.61;;
61095;Laerm;20450;49.074;9.158;2023-08-06T00:44:26;43.93;40.71;49.65;;
61095;Laerm;20450;49.074;9.158;2023-08-06T00:46:55;44.09;41.38;54.22;;
61095;Laerm;20450;49.074;9.158;2023-08-06T00:49:22;44.55;41.75;56.91;;
61095;Laerm;20450;49.074;9.158;2023-08-06T00:51:50;43.75;41.68;51.68;;
61095;Laerm;20450;49.074;9.158;2023-08-06T00:54:17;44.05;41.53;50.08;;
61095;Laerm;20450;49.074;9.158;2023-08-06T00:56:49;43.84;41.38;49.39;;
61095;Laerm;20450;49.074;9.158;2023-08-06T00:59:16;43.87;41.38;50.68;;
61095;Laerm;20450;49.074;9.158;2023-08-06T01:01:45;44.01;41.06;54.90;;
61095;Laerm;20450;49.074;9.158;2023-08-06T01:04:14;43.93;41.06;56.00;;
61095;Laerm;20450;49.074;9.158;2023-08-06T01:06:47;43.57;41.14;52.67;;
61095;Laerm;20450;49.074;9.158;2023-08-06T01:09:30;43.82;41.53;49.92;;
61095;Laerm;20450;49.074;9.158;2023-08-06T01:12:13;43.99;41.14;51.42;;
61095;Laerm;20450;49.074;9.158;2023-08-06T01:14:53;43.99;41.06;50.09;;
61095;Laerm;20450;49.074;9.158;2023-08-06T01:17:24;44.03;41.30;50.25;;
61095;Laerm;20450;49.074;9.158;2023-08-06T01:19:52;44.18;41.38;56.14;;
61095;Laerm;20450;49.074;9.158;2023-08-06T01:22:21;43.99;41.22;49.74;;
61095;Laerm;20450;49.074;9.158;2023-08-06T01:24:50;43.89;41.53;55.22;;
61095;Laerm;20450;49.074;9.158;2023-08-06T01:27:28;43.80;41.30;52.56;;
61095;Laerm;20450;49.074;9.158;2023-08-06T01:30:04;43.57;41.22;51.18;;
61095;Laerm;20450;49.074;9.158;2023-08-06T01:32:35;43.49;41.14;56.70;;
61095;Laerm;20450;49.074;9.158;2023-08-06T01:35:07;43.66;41.22;54.17;;
61095;Laerm;20450;49.074;9.158;2023-08-06T01:37:38;43.37;40.89;54.46;;
61095;Laerm;20450;49.074;9.158;2023-08-06T01:40:09;43.74;40.98;51.80;;
61095;Laerm;20450;49.074;9.158;2023-08-06T01:42:37;44.04;41.14;58.66;;
61095;Laerm;20450;49.074;9.158;2023-08-06T01:45:05;43.80;41.22;54.54;;
61095;Laerm;20450;49.074;9.158;2023-08-06T01:47:32;43.75;41.22;55.30;;
61095;Laerm;20450;49.074;9.158;2023-08-06T01:50:00;43.35;40.98;57.17;;
61095;Laerm;20450;49.074;9.158;2023-08-06T01:52:30;43.62;40.98;58.45;;
61095;Laerm;20450;49.074;9.158;2023-08-06T01:54:59;43.82;41.30;53.70;;
61095;Laerm;20450;49.074;9.158;2023-08-06T01:57:26;43.60;40.80;54.57;;
61095;Laerm;20450;49.074;9.158;2023-08-06T01:59:53;43.71;41.22;54.50;;
61095;Laerm;20450;49.074;9.158;2023-08-06T02:02:20;43.77;41.14;52.86;;
61095;Laerm;20450;49.074;9.158;2023-08-06T02:04:48;43.65;40.80;52.13;;
61095;Laerm;20450;49.074;9.158;2023-08-06T02:07:15;43.45;40.79;53.99;;
61095;Laerm;20450;49.074;9.158;2023-08-06T02:09:41;43.36;40.23;56.87;;
61095;Laerm;20450;49.074;9.158;2023-08-06T02:12:10;43.27;40.62;52.84;;
61095;Laerm;20450;49.074;9.158;2023-08-06T02:14:37;43.16;40.62;53.78;;
61095;Laerm;20450;49.074;9.158;2023-08-06T02:17:05;42.61;40.53;57.55;;
61095;Laerm;20450;49.074;9.158;2023-08-06T02:19:32;42.37;40.53;55.80;;
61095;Laerm;20450;49.074;9.158;2023-08-06T02:22:00;42.30;40.33;58.50;;
61095;Laerm;20450;49.074;9.158;2023-08-06T02:24:27;42.92;40.03;53.18;;
61095;Laerm;20450;49.074;9.158;2023-08-06T02:26:54;42.78;40.13;52.97;;
61095;Laerm;20450;49.074;9.158;2023-08-06T02:29:22;42.75;39.92;53.32;;
61095;Laerm;20450;49.074;9.158;2023-08-06T02:31:49;42.80;40.62;50.80;;
61095;Laerm;20450;49.074;9.158;2023-08-06T02:34:17;43.03;40.98;51.71;;
61095;Laerm;20450;49.074;9.158;2023-08-06T02:36:45;43.42;40.62;58.47;;
61095;Laerm;20450;49.074;9.158;2023-08-06T02:39:13;42.49;39.92;59.01;;
61095;Laerm;20450;49.074;9.158;2023-08-06T02:41:40;41.87;39.81;59.57;;
61095;Laerm;20450;49.074;9.158;2023-08-06T02:44:07;41.87;39.81;57.16;;
61095;Laerm;20450;49.074;9.158;2023-08-06T02:46:35;41.92;39.34;57.66;;
61095;Laerm;20450;49.074;9.158;2023-08-06T02:49:02;41.77;39.81;56.98;;
61095;Laerm;20450;49.074;9.158;2023-08-06T02:51:29;42.11;40.03;54.91;;
61095;Laerm;20450;49.074;9.158;2023-08-06T02:53:56;41.90;39.70;56.35;;
61095;Laerm;20450;49.074;9.158;2023-08-06T02:56:23;42.05;39.92;52.69;;
61095;Laerm;20450;49.074;9.158;2023-08-06T02:59:02;41.94;39.58;54.83;;
61095;Laerm;20450;49.074;9.158;2023-08-06T03:01:45;41.86;38.95;53.79;;
61095;Laerm;20450;49.074;9.158;2023-08-06T03:04:18;44.36;38.67;65.15;;
61095;Laerm;20450;49.074;9.158;2023-08-06T03:06:49;41.93;38.32;64.77;;
61095;Laerm;20450;49.074;9.158;2023-08-06T03:09:16;40.68;38.21;49.84;;
61095;Laerm;20450;49.074;9.158;2023-08-06T03:11:46;40.51;37.32;60.16;;
61095;Laerm;20450;49.074;9.158;2023-08-06T03:14:47;40.58;37.70;57.85;;
61095;Laerm;20450;49.074;9.158;2023-08-06T03:17:15;40.29;38.05;46.13;;
61095;Laerm;20450;49.074;9.158;2023-08-06T03:19:42;40.70;38.52;42.98;;
61095;Laerm;20450;49.074;9.158;2023-08-06T03:22:14;41.53;38.67;44.51;;
61095;Laerm;20450;49.074;9.158;2023-08-06T03:24:45;40.43;37.88;57.03;;
61095;Laerm;20450;49.074;9.158;2023-08-06T03:27:12;40.47;37.70;43.49;;
61095;Laerm;20450;49.074;9.158;2023-08-06T03:29:41;40.51;38.21;42.76;;
61095;Laerm;20450;49.074;9.158;2023-08-06T03:32:10;40.67;37.88;42.76;;
61095;Laerm;20450;49.074;9.158;2023-08-06T03:34:38;40.58;37.88;43.29;;
61095;Laerm;20450;49.074;9.158;2023-08-06T03:37:06;40.19;37.70;42.47;;
61095;Laerm;20450;49.074;9.158;2023-08-06T03:39:33;40.32;37.52;43.72;;
61095;Laerm;20450;49.074;9.158;2023-08-06T03:42:01;39.97;37.70;49.33;;
61095;Laerm;20450;49.074;9.158;2023-08-06T03:44:29;40.38;37.12;43.63;;
61095;Laerm;20450;49.074;9.158;2023-08-06T03:46:55;39.64;36.45;41.96;;
61095;Laerm;20450;49.074;9.158;2023-08-06T03:49:24;39.52;36.69;42.53;;
61095;Laerm;20450;49.074;9.158;2023-08-06T03:51:51;39.65;36.45;42.76;;
61095;Laerm;20450;49.074;9.158;2023-08-06T03:54:18;39.44;36.20;42.76;;
61095;Laerm;20450;49.074;9.158;2023-08-06T03:56:45;39.36;35.66;43.14;;
61095;Laerm;20450;49.074;9.158;2023-08-06T03:59:12;39.72;36.20;43.86;;
61095;Laerm;20450;49.074;9.158;2023-08-06T04:01:40;39.08;35.66;44.47;;
61095;Laerm;20450;49.074;9.158;2023-08-06T04:04:07;38.62;35.04;41.96;;
61095;Laerm;20450;49.074;9.158;2023-08-06T04:06:35;38.83;34.34;43.49;;
61095;Laerm;20450;49.074;9.158;2023-08-06T04:09:03;39.04;35.04;43.09;;
61095;Laerm;20450;49.074;9.158;2023-08-06T04:11:30;38.63;35.04;42.82;;
61095;Laerm;20450;49.074;9.158;2023-08-06T04:13:57;38.30;34.31;41.68;;
61095;Laerm;20450;49.074;9.158;2023-08-06T04:16:25;38.21;34.31;41.96;;
61095;Laerm;20450;49.074;9.158;2023-08-06T04:18:52;38.30;34.69;42.76;;
61095;Laerm;20450;49.074;9.158;2023-08-06T04:21:19;38.42;33.90;46.10;;
61095;Laerm;20450;49.074;9.158;2023-08-06T04:23:47;38.56;35.04;42.47;;
61095;Laerm;20450;49.074;9.158;2023-08-06T04:26:15;38.30;33.90;42.65;;
61095;Laerm;20450;49.074;9.158;2023-08-06T04:28:44;39.40;35.04;43.94;;
61095;Laerm;20450;49.074;9.158;2023-08-06T04:31:10;38.41;34.31;42.59;;
61095;Laerm;20450;49.074;9.158;2023-08-06T04:33:40;38.83;33.44;42.22;;
61095;Laerm;20450;49.074;9.158;2023-08-06T04:36:11;38.38;34.34;42.93;;
61095;Laerm;20450;49.074;9.158;2023-08-06T04:38:38;38.20;34.69;46.33;;
61095;Laerm;20450;49.074;9.158;2023-08-06T04:41:07;38.40;34.31;41.75;;
61095;Laerm;20450;49.074;9.158;2023-08-06T04:43:34;38.44;34.31;42.53;;
61095;Laerm;20450;49.074;9.158;2023-08-06T04:46:01;38.71;34.31;46.28;;
61095;Laerm;20450;49.074;9.158;2023-08-06T04:48:28;38.58;35.04;45.04;;
61095;Laerm;20450;49.074;9.158;2023-08-06T04:50:56;38.30;35.04;43.19;;
61095;Laerm;20450;49.074;9.158;2023-08-06T04:53:23;38.28;34.31;46.05;;
61095;Laerm;20450;49.074;9.158;2023-08-06T04:55:52;38.81;35.04;47.83;;
61095;Laerm;20450;49.074;9.158;2023-08-06T04:58:20;38.68;34.69;50.30;;
61095;Laerm;20450;49.074;9.158;2023-08-06T05:00:48;38.74;34.69;45.11;;
61095;Laerm;20450;49.074;9.158;2023-08-06T05:03:15;38.65;35.04;49.14;;
61095;Laerm;20450;49.074;9.158;2023-08-06T05:05:42;38.63;34.31;47.52;;
61095;Laerm;20450;49.074;9.158;2023-08-06T05:08:14;39.01;35.04;53.53;;
61095;Laerm;20450;49.074;9.158;2023-08-06T05:10:42;40.18;36.20;47.18;;
61095;Laerm;20450;49.074;9.158;2023-08-06T05:13:09;38.46;34.31;42.71;;
61095;Laerm;20450;49.074;9.158;2023-08-06T05:15:38;38.58;34.31;46.69;;
61095;Laerm;20450;49.074;9.158;2023-08-06T05:18:05;38.59;34.31;48.28;;
61095;Laerm;20450;49.074;9.158;2023-08-06T05:20:36;38.46;34.69;50.56;;
61095;Laerm;20450;49.074;9.158;2023-08-06T05:23:03;39.55;34.69;66.67;;
61095;Laerm;20450;49.074;9.158;2023-08-06T05:25:30;38.53;35.36;48.02;;
61095;Laerm;20450;49.074;9.158;2023-08-06T05:27:57;38.22;33.44;41.89;;
61095;Laerm;20450;49.074;9.158;2023-08-06T05:30:24;38.49;33.44;41.61;;
61095;Laerm;20450;49.074;9.158;2023-08-06T05:32:53;38.37;34.31;41.22;;
61095;Laerm;20450;49.074;9.158;2023-08-06T05:35:21;38.50;34.31;43.49;;
61095;Laerm;20450;49.074;9.158;2023-08-06T05:37:50;38.22;34.69;42.35;;
61095;Laerm;20450;49.074;9.158;2023-08-06T05:40:17;39.03;34.69;58.08;;
61095;Laerm;20450;49.074;9.158;2023-08-06T05:42:44;38.80;35.04;41.46;;
61095;Laerm;20450;49.074;9.158;2023-08-06T05:45:11;38.75;35.04;45.43;;
61095;Laerm;20450;49.074;9.158;2023-08-06T05:47:38;38.75;34.31;59.62;;
61095;Laerm;20450;49.074;9.158;2023-08-06T05:50:08;38.56;34.31;47.88;;
61095;Laerm;20450;49.074;9.158;2023-08-06T05:52:35;39.07;34.69;45.42;;
61095;Laerm;20450;49.074;9.158;2023-08-06T05:55:02;39.00;34.69;48.16;;
61095;Laerm;20450;49.074;9.158;2023-08-06T05:57:29;38.94;35.36;48.95;;
61095;Laerm;20450;49.074;9.158;2023-08-06T05:59:56;39.33;35.04;44.15;;
61095;Laerm;20450;49.074;9.158;2023-08-06T06:02:23;39.42;35.04;45.48;;
61095;Laerm;20450;49.074;9.158;2023-08-06T06:04:51;39.15;35.36;42.82;;
61095;Laerm;20450;49.074;9.158;2023-08-06T06:07:19;38.54;34.31;44.73;;
61095;Laerm;20450;49.074;9.158;2023-08-06T06:09:46;38.99;34.31;45.54;;
61095;Laerm;20450;49.074;9.158;2023-08-06T06:12:13;38.71;34.31;42.53;;
61095;Laerm;20450;49.074;9.158;2023-08-06T06:14:40;38.84;33.90;44.07;;
61095;Laerm;20450;49.074;9.158;2023-08-06T06:17:07;38.73;35.04;45.04;;
61095;Laerm;20450;49.074;9.158;2023-08-06T06:19:34;38.34;34.69;41.30;;
61095;Laerm;20450;49.074;9.158;2023-08-06T06:22:01;39.65;34.69;47.07;;
61095;Laerm;20450;49.074;9.158;2023-08-06T06:24:29;40.07;35.66;45.20;;
61095;Laerm;20450;49.074;9.158;2023-08-06T06:26:56;40.07;35.04;48.48;;
61095;Laerm;20450;49.074;9.158;2023-08-06T06:29:23;39.47;35.94;43.81;;
61095;Laerm;20450;49.074;9.158;2023-08-06T06:31:50;40.08;36.69;49.82;;
61095;Laerm;20450;49.074;9.158;2023-08-06T06:34:18;40.44;36.69;44.15;;
61095;Laerm;20450;49.074;9.158;2023-08-06T06:36:44;39.85;35.36;44.62;;
61095;Laerm;20450;49.074;9.158;2023-08-06T06:39:12;39.81;36.20;44.49;;
61095;Laerm;20450;49.074;9.158;2023-08-06T06:41:40;40.22;36.56;46.55;;
61095;Laerm;20450;49.074;9.158;2023-08-06T06:44:16;40.36;37.32;47.02;;
61095;Laerm;20450;49.074;9.158;2023-08-06T06:46:44;40.43;36.20;50.54;;
61095;Laerm;20450;49.074;9.158;2023-08-06T06:49:11;39.88;33.90;52.37;;
61095;Laerm;20450;49.074;9.158;2023-08-06T06:51:38;39.73;35.04;53.20;;
61095;Laerm;20450;49.074;9.158;2023-08-06T06:54:06;40.10;35.66;44.76;;
61095;Laerm;20450;49.074;9.158;2023-08-06T06:56:33;39.33;35.04;46.76;;
61095;Laerm;20450;49.074;9.158;2023-08-06T06:59:02;39.61;35.66;47.73;;
61095;Laerm;20450;49.074;9.158;2023-08-06T07:01:29;40.50;36.45;44.11;;
61095;Laerm;20450;49.074;9.158;2023-08-06T07:03:56;40.57;36.69;48.43;;
61095;Laerm;20450;49.074;9.158;2023-08-06T07:06:23;40.88;35.94;54.44;;
61095;Laerm;20450;49.074;9.158;2023-08-06T07:08:50;40.00;35.31;52.48;;
61095;Laerm;20450;49.074;9.158;2023-08-06T07:11:17;39.58;35.36;46.95;;
61095;Laerm;20450;49.074;9.158;2023-08-06T07:13:44;38.84;34.31;53.21;;
61095;Laerm;20450;49.074;9.158;2023-08-06T07:16:12;39.43;35.04;45.07;;
61095;Laerm;20450;49.074;9.158;2023-08-06T07:18:39;40.36;36.20;55.25;;
61095;Laerm;20450;49.074;9.158;2023-08-06T07:21:06;39.62;35.36;47.77;;
61095;Laerm;20450;49.074;9.158;2023-08-06T07:23:33;39.80;35.66;44.47;;
61095;Laerm;20450;49.074;9.158;2023-08-06T07:26:00;39.59;36.20;44.11;;
61095;Laerm;20450;49.074;9.158;2023-08-06T07:28:27;39.13;35.66;44.76;;
61095;Laerm;20450;49.074;9.158;2023-08-06T07:30:54;39.26;35.36;44.15;;
61095;Laerm;20450;49.074;9.158;2023-08-06T07:33:25;39.70;35.86;48.18;;
61095;Laerm;20450;49.074;9.158;2023-08-06T07:35:52;44.94;35.66;61.35;;
61095;Laerm;20450;49.074;9.158;2023-08-06T07:38:22;39.58;35.66;43.29;;
61095;Laerm;20450;49.074;9.158;2023-08-06T07:40:50;39.76;35.66;45.04;;
61095;Laerm;20450;49.074;9.158;2023-08-06T07:43:18;40.12;36.20;44.54;;
61095;Laerm;20450;49.074;9.158;2023-08-06T07:45:45;40.15;34.69;53.00;;
61095;Laerm;20450;49.074;9.158;2023-08-06T07:48:13;39.97;35.66;52.00;;
61095;Laerm;20450;49.074;9.158;2023-08-06T07:50:41;40.02;35.94;48.90;;
61095;Laerm;20450;49.074;9.158;2023-08-06T07:53:09;41.05;37.12;50.79;;
61095;Laerm;20450;49.074;9.158;2023-08-06T07:55:38;41.02;36.20;58.15;;
61095;Laerm;20450;49.074;9.158;2023-08-06T07:58:05;39.76;35.66;45.60;;
61095;Laerm;20450;49.074;9.158;2023-08-06T08:00:32;40.94;35.94;63.73;;
61095;Laerm;20450;49.074;9.158;2023-08-06T08:03:00;40.73;35.59;54.87;;
61095;Laerm;20450;49.074;9.158;2023-08-06T08:05:28;41.56;35.66;57.61;;
61095;Laerm;20450;49.074;9.158;2023-08-06T08:08:00;40.46;36.69;60.26;;
61095;Laerm;20450;49.074;9.158;2023-08-06T08:10:28;41.14;35.94;60.77;;
61095;Laerm;20450;49.074;9.158;2023-08-06T08:12:55;40.43;35.66;58.29;;
61095;Laerm;20450;49.074;9.158;2023-08-06T08:15:22;40.59;37.12;57.15;;
61095;Laerm;20450;49.074;9.158;2023-08-06T08:17:53;40.08;37.12;45.48;;
61095;Laerm;20450;49.074;9.158;2023-08-06T08:20:21;41.11;35.94;55.90;;
61095;Laerm;20450;49.074;9.158;2023-08-06T08:22:48;39.83;36.20;46.23;;
61095;Laerm;20450;49.074;9.158;2023-08-06T08:25:16;40.70;35.94;64.45;;
61095;Laerm;20450;49.074;9.158;2023-08-06T08:27:44;39.66;36.45;50.98;;
61095;Laerm;20450;49.074;9.158;2023-08-06T08:30:11;40.13;36.69;49.52;;
61095;Laerm;20450;49.074;9.158;2023-08-06T08:32:39;40.57;35.94;50.40;;
61095;Laerm;20450;49.074;9.158;2023-08-06T08:35:08;42.21;37.52;61.12;;
61095;Laerm;20450;49.074;9.158;2023-08-06T08:37:36;40.51;36.20;53.96;;
61095;Laerm;20450;49.074;9.158;2023-08-06T08:40:04;40.13;37.12;43.81;;
61095;Laerm;20450;49.074;9.158;2023-08-06T08:42:34;41.38;36.91;57.26;;
61095;Laerm;20450;49.074;9.158;2023-08-06T08:45:02;40.66;37.52;46.48;;
61095;Laerm;20450;49.074;9.158;2023-08-06T08:47:31;39.82;36.20;44.35;;
61095;Laerm;20450;49.074;9.158;2023-08-06T08:50:01;41.39;36.69;46.89;;
61095;Laerm;20450;49.074;9.158;2023-08-06T08:52:35;42.44;38.81;55.02;;
61095;Laerm;20450;49.074;9.158;2023-08-06T08:55:08;41.38;36.69;51.07;;
61095;Laerm;20450;49.074;9.158;2023-08-06T08:57:37;41.26;38.52;47.79;;
61095;Laerm;20450;49.074;9.158;2023-08-06T09:00:06;41.83;36.91;54.60;;
61095;Laerm;20450;49.074;9.158;2023-08-06T09:02:34;40.17;36.69;45.01;;
61095;Laerm;20450;49.074;9.158;2023-08-06T09:05:05;40.46;36.69;46.05;;
61095;Laerm;20450;49.074;9.158;2023-08-06T09:07:38;39.95;36.69;44.65;;
61095;Laerm;20450;49.074;9.158;2023-08-06T09:10:14;40.36;35.66;54.71;;
61095;Laerm;20450;49.074;9.158;2023-08-06T09:12:45;40.69;35.94;58.76;;
61095;Laerm;20450;49.074;9.158;2023-08-06T09:15:12;40.16;37.12;44.83;;
61095;Laerm;20450;49.074;9.158;2023-08-06T09:17:40;40.15;36.69;46.78;;
61095;Laerm;20450;49.074;9.158;2023-08-06T09:20:13;41.75;37.32;54.55;;
61095;Laerm;20450;49.074;9.158;2023-08-06T09:22:41;41.33;36.91;52.44;;
61095;Laerm;20450;49.074;9.158;2023-08-06T09:25:08;41.60;36.91;60.96;;
61095;Laerm;20450;49.074;9.158;2023-08-06T09:27:36;41.20;36.91;53.56;;
61095;Laerm;20450;49.074;9.158;2023-08-06T09:30:07;40.53;36.10;53.72;;
61095;Laerm;20450;49.074;9.158;2023-08-06T09:32:45;40.89;35.94;57.28;;
61095;Laerm;20450;49.074;9.158;2023-08-06T09:35:16;43.57;35.66;66.65;;
61095;Laerm;20450;49.074;9.158;2023-08-06T09:37:43;41.34;37.70;52.51;;
61095;Laerm;20450;49.074;9.158;2023-08-06T09:40:28;40.99;37.12;46.76;;
61095;Laerm;20450;49.074;9.158;2023-08-06T09:42:57;42.25;37.12;59.31;;
61095;Laerm;20450;49.074;9.158;2023-08-06T09:45:31;40.83;36.77;54.67;;
61095;Laerm;20450;49.074;9.158;2023-08-06T09:48:00;39.67;36.69;43.86;;
61095;Laerm;20450;49.074;9.158;2023-08-06T09:50:32;40.37;36.20;50.32;;
61095;Laerm;20450;49.074;9.158;2023-08-06T09:53:03;41.51;37.70;45.51;;
61095;Laerm;20450;49.074;9.158;2023-08-06T09:55:35;40.94;36.20;57.29;;
61095;Laerm;20450;49.074;9.158;2023-08-06T09:58:02;42.83;36.69;63.56;;
61095;Laerm;20450;49.074;9.158;2023-08-06T10:00:33;43.19;39.70;50.25;;
61095;Laerm;20450;49.074;9.158;2023-08-06T10:03:07;44.02;41.06;47.32;;
61095;Laerm;20450;49.074;9.158;2023-08-06T10:05:37;47.03;38.95;71.68;;
61095;Laerm;20450;49.074;9.158;2023-08-06T10:08:06;45.23;38.67;65.42;;
61095;Laerm;20450;49.074;9.158;2023-08-06T10:10:34;42.97;38.95;59.67;;
61095;Laerm;20450;49.074;9.158;2023-08-06T10:13:05;41.54;37.70;54.93;;
61095;Laerm;20450;49.074;9.158;2023-08-06T10:15:38;41.77;37.52;57.71;;
61095;Laerm;20450;49.074;9.158;2023-08-06T10:18:12;40.90;38.05;46.78;;
61095;Laerm;20450;49.074;9.158;2023-08-06T10:20:41;40.80;37.70;47.18;;
61095;Laerm;20450;49.074;9.158;2023-08-06T10:23:09;42.09;37.12;58.83;;
61095;Laerm;20450;49.074;9.158;2023-08-06T10:25:41;44.87;37.52;66.03;;
61095;Laerm;20450;49.074;9.158;2023-08-06T10:28:36;43.63;37.32;60.83;;
61095;Laerm;20450;49.074;9.158;2023-08-06T10:31:08;44.02;38.52;61.82;;
61095;Laerm;20450;49.074;9.158;2023-08-06T10:33:43;42.89;39.92;52.57;;
61095;Laerm;20450;49.074;9.158;2023-08-06T10:36:11;42.47;39.58;47.90;;
61095;Laerm;20450;49.074;9.158;2023-08-06T10:38:47;42.20;37.70;46.40;;
61095;Laerm;20450;49.074;9.158;2023-08-06T10:41:23;42.65;39.34;47.52;;
61095;Laerm;20450;49.074;9.158;2023-08-06T10:43:51;41.86;38.21;55.84;;
61095;Laerm;20450;49.074;9.158;2023-08-06T10:46:26;41.94;37.70;60.42;;
61095;Laerm;20450;49.074;9.158;2023-08-06T10:48:54;41.69;38.52;46.33;;
61095;Laerm;20450;49.074;9.158;2023-08-06T10:51:21;41.63;38.05;52.64;;
61095;Laerm;20450;49.074;9.158;2023-08-06T10:53:55;41.67;37.70;64.68;;
61095;Laerm;20450;49.074;9.158;2023-08-06T10:56:25;42.32;36.45;61.11;;
61095;Laerm;20450;49.074;9.158;2023-08-06T10:58:57;40.91;37.32;45.60;;
61095;Laerm;20450;49.074;9.158;2023-08-06T11:01:29;40.64;37.32;54.94;;
61095;Laerm;20450;49.074;9.158;2023-08-06T11:04:02;41.38;38.21;54.59;;
61095;Laerm;20450;49.074;9.158;2023-08-06T11:06:31;42.95;38.81;63.32;;
61095;Laerm;20450;49.074;9.158;2023-08-06T11:08:59;43.60;38.67;49.59;;
61095;Laerm;20450;49.074;9.158;2023-08-06T11:11:26;42.97;39.21;58.58;;
61095;Laerm;20450;49.074;9.158;2023-08-06T11:13:58;42.78;39.58;60.34;;
61095;Laerm;20450;49.074;9.158;2023-08-06T11:16:31;42.14;39.21;50.23;;
61095;Laerm;20450;49.074;9.158;2023-08-06T11:18:59;42.47;39.34;57.97;;
61095;Laerm;20450;49.074;9.158;2023-08-06T11:21:29;43.49;38.95;65.56;;
61095;Laerm;20450;49.074;9.158;2023-08-06T11:24:00;41.60;38.05;52.91;;
61095;Laerm;20450;49.074;9.158;2023-08-06T11:26:28;41.54;38.05;50.23;;
61095;Laerm;20450;49.074;9.158;2023-08-06T11:28:57;48.10;38.81;72.83;;
61095;Laerm;20450;49.074;9.158;2023-08-06T11:31:36;41.90;38.21;48.98;;
61095;Laerm;20450;49.074;9.158;2023-08-06T11:34:04;43.35;39.46;55.51;;
61095;Laerm;20450;49.074;9.158;2023-08-06T11:36:34;44.38;40.62;59.54;;
61095;Laerm;20450;49.074;9.158;2023-08-06T11:39:03;43.07;40.53;52.87;;
61095;Laerm;20450;49.074;9.158;2023-08-06T11:41:30;43.21;39.81;46.97;;
61095;Laerm;20450;49.074;9.158;2023-08-06T11:44:03;43.18;39.21;48.87;;
61095;Laerm;20450;49.074;9.158;2023-08-06T11:46:54;43.06;38.52;54.61;;
61095;Laerm;20450;49.074;9.158;2023-08-06T11:49:40;43.53;39.81;50.77;;
61095;Laerm;20450;49.074;9.158;2023-08-06T11:52:20;42.62;39.58;47.96;;
61095;Laerm;20450;49.074;9.158;2023-08-06T11:55:00;42.61;39.81;49.75;;
61095;Laerm;20450;49.074;9.158;2023-08-06T11:57:30;42.69;40.23;51.60;;
61095;Laerm;20450;49.074;9.158;2023-08-06T11:59:57;43.72;38.95;64.64;;
61095;Laerm;20450;49.074;9.158;2023-08-06T12:02:27;43.37;39.34;55.72;;
61095;Laerm;20450;49.074;9.158;2023-08-06T12:04:59;45.07;38.52;66.65;;
61095;Laerm;20450;49.074;9.158;2023-08-06T12:07:29;42.20;39.58;49.49;;
61095;Laerm;20450;49.074;9.158;2023-08-06T12:09:58;42.74;38.81;54.87;;
61095;Laerm;20450;49.074;9.158;2023-08-06T12:12:25;43.61;40.89;50.42;;
61095;Laerm;20450;49.074;9.158;2023-08-06T12:14:56;44.05;40.23;60.86;;
61095;Laerm;20450;49.074;9.158;2023-08-06T12:17:26;43.77;40.89;59.67;;
61095;Laerm;20450;49.074;9.158;2023-08-06T12:19:54;43.59;39.58;55.37;;
61095;Laerm;20450;49.074;9.158;2023-08-06T12:22:40;44.57;41.68;57.08;;
61095;Laerm;20450;49.074;9.158;2023-08-06T12:25:10;45.27;40.23;62.89;;
61095;Laerm;20450;49.074;9.158;2023-08-06T12:27:45;44.47;41.06;51.37;;
61095;Laerm;20450;49.074;9.158;2023-08-06T12:30:15;43.98;41.06;52.67;;
61095;Laerm;20450;49.074;9.158;2023-08-06T12:32:51;44.67;42.35;50.30;;
61095;Laerm;20450;49.074;9.158;2023-08-06T12:35:22;45.48;40.53;63.83;;
61095;Laerm;20450;49.074;9.158;2023-08-06T12:37:54;43.59;40.53;55.66;;
61095;Laerm;20450;49.074;9.158;2023-08-06T12:40:22;43.40;38.81;50.08;;
61095;Laerm;20450;49.074;9.158;2023-08-06T12:43:11;43.74;40.13;51.14;;
61095;Laerm;20450;49.074;9.158;2023-08-06T12:45:42;43.23;40.03;55.41;;
61095;Laerm;20450;49.074;9.158;2023-08-06T12:48:11;43.82;39.58;57.47;;
61095;Laerm;20450;49.074;9.158;2023-08-06T12:50:38;43.06;40.03;54.45;;
61095;Laerm;20450;49.074;9.158;2023-08-06T12:53:05;43.73;40.43;49.56;;
61095;Laerm;20450;49.074;9.158;2023-08-06T12:55:36;43.28;40.71;55.49;;
61095;Laerm;20450;49.074;9.158;2023-08-06T12:58:07;43.61;40.80;51.77;;
61095;Laerm;20450;49.074;9.158;2023-08-06T13:00:38;43.93;39.70;65.64;;
61095;Laerm;20450;49.074;9.158;2023-08-06T13:03:08;42.78;39.08;51.16;;
61095;Laerm;20450;49.074;9.158;2023-08-06T13:05:43;43.02;39.81;55.20;;
61095;Laerm;20450;49.074;9.158;2023-08-06T13:08:10;42.97;40.23;49.74;;
61095;Laerm;20450;49.074;9.158;2023-08-06T13:10:39;42.68;39.81;47.59;;
61095;Laerm;20450;49.074;9.158;2023-08-06T13:13:07;42.86;39.46;57.33;;
61095;Laerm;20450;49.074;9.158;2023-08-06T13:15:35;42.17;40.23;45.63;;
61095;Laerm;20450;49.074;9.158;2023-08-06T13:20:42;43.27;39.46;56.55;;
61095;Laerm;20450;49.074;9.158;2023-08-06T13:23:09;42.82;40.03;48.69;;
61095;Laerm;20450;49.074;9.158;2023-08-06T13:25:45;42.97;40.45;47.91;;
61095;Laerm;20450;49.074;9.158;2023-08-06T13:28:16;43.24;40.98;46.64;;
61095;Laerm;20450;49.074;9.158;2023-08-06T13:30:44;43.06;40.03;54.80;;
61095;Laerm;20450;49.074;9.158;2023-08-06T13:33:11;44.01;40.03;58.10;;
61095;Laerm;20450;49.074;9.158;2023-08-06T13:35:42;43.35;40.89;46.15;;
61095;Laerm;20450;49.074;9.158;2023-08-06T13:38:15;43.28;40.89;46.15;;
61095;Laerm;20450;49.074;9.158;2023-08-06T13:40:54;43.62;40.53;50.98;;
61095;Laerm;20450;49.074;9.158;2023-08-06T13:43:22;43.08;40.33;47.63;;
61095;Laerm;20450;49.074;9.158;2023-08-06T13:45:49;42.16;38.95;48.39;;
61095;Laerm;20450;49.074;9.158;2023-08-06T13:48:16;42.51;39.70;54.01;;
61095;Laerm;20450;49.074;9.158;2023-08-06T13:50:51;42.09;39.34;44.23;;
61095;Laerm;20450;49.074;9.158;2023-08-06T13:53:21;42.93;39.92;52.49;;
61095;Laerm;20450;49.074;9.158;2023-08-06T13:55:49;42.70;39.58;50.34;;
61095;Laerm;20450;49.074;9.158;2023-08-06T13:58:27;42.92;39.34;49.12;;